Time,TemperatureF,DewpointF,PressureIn,WindDirection,WindDirectionDegrees,WindSpeedMPH,WindSpeedGustMPH,Humidity,HourlyPrecipIn,Conditions,Clouds,dailyrainin,SoftwareType,DateUTC
2013-07-10 00:02:00,80.0,71.0,-100.00,NNW,345,7.0,9.0,73,0.00,,,-99.99,,2013-07-10 05:02:00,
2013-07-10 00:12:00,80.0,71.0,-100.00,NNW,345,6.0,9.0,74,0.00,,,-99.99,,2013-07-10 05:12:00,
2013-07-10 00:22:00,79.0,71.0,-100.00,North,355,4.0,7.0,75,0.00,,,-99.99,,2013-07-10 05:22:00,
2013-07-10 00:32:00,79.0,71.0,-100.00,North,0,4.0,7.0,77,0.00,,,-99.99,,2013-07-10 05:32:00,
2013-07-10 00:42:00,78.0,71.0,-100.00,North,5,5.0,7.0,78,0.00,,,-99.99,,2013-07-10 05:42:00,
2013-07-10 00:52:00,78.0,71.0,-100.00,North,10,4.0,7.0,79,0.00,,,-99.99,,2013-07-10 05:52:00,
2013-07-10 01:01:00,77.0,70.0,-100.00,North,10,3.0,6.0,80,0.00,,,-99.99,,2013-07-10 06:01:00,
2013-07-10 01:11:00,76.0,70.0,-100.00,NNE,15,3.0,6.0,80,0.00,,,-99.99,,2013-07-10 06:11:00,
2013-07-10 01:22:00,76.0,70.0,-100.00,NNE,15,4.0,6.0,80,0.00,,,-99.99,,2013-07-10 06:22:00,
2013-07-10 01:32:00,76.0,70.0,-100.00,North,10,4.0,5.0,82,0.00,,,-99.99,,2013-07-10 06:32:00,
2013-07-10 01:42:00,76.0,70.0,-100.00,North,5,4.0,4.0,82,0.00,,,-99.99,,2013-07-10 06:42:00,
2013-07-10 02:01:00,75.0,70.0,-100.00,North,0,4.0,6.0,82,0.00,,,-99.99,,2013-07-10 07:01:00,
2013-07-10 02:11:00,75.0,70.0,-100.00,North,355,3.0,6.0,82,0.00,,,-99.99,,2013-07-10 07:11:00,
2013-07-10 02:22:00,74.0,69.0,-100.00,NNW,330,4.0,6.0,82,0.00,,,-99.99,,2013-07-10 07:22:00,
2013-07-10 02:33:00,74.0,69.0,-100.00,North,0,2.0,6.0,82,0.00,,,-99.99,,2013-07-10 07:33:00,
2013-07-10 02:43:00,74.0,68.0,-100.00,North,0,4.0,4.0,82,0.00,,,-99.99,,2013-07-10 07:43:00,
2013-07-10 03:01:00,74.0,68.0,-100.00,NNW,340,2.0,6.0,82,0.00,,,-99.99,,2013-07-10 08:01:00,
2013-07-10 03:11:00,74.0,69.0,-100.00,NNW,340,5.0,7.0,82,0.00,,,-99.99,,2013-07-10 08:11:00,
2013-07-10 03:23:00,74.0,68.0,-100.00,NNW,335,6.0,9.0,82,0.00,,,-99.99,,2013-07-10 08:23:00,
2013-07-10 03:33:00,73.0,68.0,-100.00,NNW,340,8.0,11.0,83,0.00,,,-99.99,,2013-07-10 08:33:00,
2013-07-10 03:42:00,73.0,68.0,-100.00,NNW,340,9.0,12.0,82,0.00,,,-99.99,,2013-07-10 08:42:00,
2013-07-10 04:02:00,73.0,68.0,-100.00,NNW,340,9.0,12.0,82,0.00,,,-99.99,,2013-07-10 09:02:00,
2013-07-10 04:12:00,74.0,67.0,-100.00,NNW,335,7.0,12.0,78,0.00,,,-99.99,,2013-07-10 09:12:00,
2013-07-10 04:22:00,74.0,66.0,-100.00,NNW,340,7.0,12.0,78,0.00,,,-99.99,,2013-07-10 09:22:00,
2013-07-10 04:32:00,73.0,66.0,-100.00,NNW,335,9.0,12.0,78,0.00,,,-99.99,,2013-07-10 09:32:00,
2013-07-10 04:42:00,73.0,66.0,-100.00,NNW,340,7.0,10.0,79,0.00,,,-99.99,,2013-07-10 09:42:00,
2013-07-10 04:52:00,72.0,66.0,-100.00,NNW,335,7.0,11.0,79,0.00,,,-99.99,,2013-07-10 09:52:00,
2013-07-10 05:01:00,72.0,66.0,-100.00,NNW,340,6.0,11.0,81,0.00,,,-99.99,,2013-07-10 10:01:00,
2013-07-10 05:13:00,71.0,66.0,-100.00,NNW,340,4.0,8.0,82,0.00,,,-99.99,,2013-07-10 10:13:00,
2013-07-10 05:23:00,71.0,66.0,-100.00,NNW,330,6.0,10.0,83,0.00,,,-99.99,,2013-07-10 10:23:00,
2013-07-10 05:32:00,71.0,65.0,-100.00,NW,325,7.0,12.0,83,0.00,,,-99.99,,2013-07-10 10:32:00,
2013-07-10 05:50:00,-999.0,-99.9,-100.00,NNW,340,6.0,13.0,-999,-99.99,,,-99.99,,2013-07-10 10:50:00,
2013-07-10 06:00:00,-999.0,-99.9,-100.00,NNW,340,7.0,13.0,-999,-99.99,,,-99.99,,2013-07-10 11:00:00,
2013-07-10 06:11:00,69.0,63.0,-100.00,NNW,330,8.0,14.0,79,0.00,,,-99.99,,2013-07-10 11:11:00,
2013-07-10 06:22:00,69.0,63.0,-100.00,NNW,330,8.0,14.0,79,0.00,,,-99.99,,2013-07-10 11:22:00,
2013-07-10 06:33:00,69.0,62.0,-100.00,NNW,345,7.0,16.0,78,0.00,,,-99.99,,2013-07-10 11:33:00,
2013-07-10 06:43:00,69.0,62.0,-100.00,NNW,345,7.0,12.0,79,0.00,,,-99.99,,2013-07-10 11:43:00,
2013-07-10 07:02:00,69.0,63.0,-100.00,NNW,330,7.0,15.0,80,0.00,,,-99.99,,2013-07-10 12:02:00,
2013-07-10 07:11:00,69.0,63.0,-100.00,NNW,330,10.0,17.0,80,0.00,,,-99.99,,2013-07-10 12:11:00,
2013-07-10 07:22:00,69.0,63.0,-100.00,NNW,335,8.0,18.0,80,0.00,,,-99.99,,2013-07-10 12:22:00,
2013-07-10 07:33:00,69.0,63.0,-100.00,NNW,335,12.0,18.0,80,0.00,,,-99.99,,2013-07-10 12:33:00,
2013-07-10 07:43:00,69.0,62.0,-100.00,NNW,330,13.0,19.0,79,0.00,,,-99.99,,2013-07-10 12:43:00,
2013-07-10 07:53:00,69.0,62.0,-100.00,NNW,335,13.0,19.0,77,0.00,,,-99.99,,2013-07-10 12:53:00,
2013-07-10 08:11:00,70.0,61.0,-100.00,NNW,340,10.0,17.0,71,0.00,,,-99.99,,2013-07-10 13:11:00,
2013-07-10 08:21:00,71.0,59.0,-100.00,NNW,335,12.0,17.0,67,0.00,,,-99.99,,2013-07-10 13:21:00,
2013-07-10 08:32:00,71.0,58.0,-100.00,NNW,345,12.0,21.0,64,0.00,,,-99.99,,2013-07-10 13:32:00,
2013-07-10 08:43:00,71.0,58.0,-100.00,NNW,345,12.0,19.0,61,0.00,,,-99.99,,2013-07-10 13:43:00,
2013-07-10 08:52:00,72.0,58.0,-100.00,NNW,340,11.0,20.0,60,0.00,,,-99.99,,2013-07-10 13:52:00,
2013-07-10 09:01:00,72.0,58.0,-100.00,NNW,340,11.0,18.0,60,0.00,,,-99.99,,2013-07-10 14:01:00,
2013-07-10 09:11:00,72.0,57.0,-100.00,NNW,340,12.0,19.0,58,0.00,,,-99.99,,2013-07-10 14:11:00,
2013-07-10 09:33:00,73.0,56.0,-100.00,NNW,335,12.0,17.0,53,0.00,,,-99.99,,2013-07-10 14:33:00,
2013-07-10 09:43:00,74.0,56.0,-100.00,North,0,9.0,18.0,53,0.00,,,-99.99,,2013-07-10 14:43:00,
2013-07-10 09:53:00,74.0,55.0,-100.00,North,350,14.0,17.0,51,0.00,,,-99.99,,2013-07-10 14:53:00,
2013-07-10 10:01:00,74.0,53.0,-100.00,North,0,13.0,19.0,48,0.00,,,-99.99,,2013-07-10 15:01:00,
2013-07-10 10:11:00,74.0,53.0,-100.00,North,0,12.0,20.0,48,0.00,,,-99.99,,2013-07-10 15:11:00,
2013-07-10 10:22:00,74.0,53.0,-100.00,North,0,12.0,17.0,48,0.00,,,-99.99,,2013-07-10 15:22:00,
2013-07-10 10:34:00,75.0,53.0,-100.00,North,0,11.0,23.0,47,0.00,,,-99.99,,2013-07-10 15:34:00,
2013-07-10 10:42:00,74.0,53.0,-100.00,North,0,13.0,19.0,47,0.00,,,-99.99,,2013-07-10 15:42:00,
2013-07-10 10:52:00,74.0,53.0,-100.00,NNW,340,14.0,20.0,46,0.00,,,-99.99,,2013-07-10 15:52:00,
2013-07-10 11:01:00,75.0,53.0,-100.00,NNW,340,10.0,20.0,46,0.00,,,-99.99,,2013-07-10 16:01:00,
2013-07-10 11:11:00,76.0,54.0,-100.00,NNW,340,8.0,18.0,44,0.00,,,-99.99,,2013-07-10 16:11:00,
2013-07-10 11:22:00,76.0,53.0,-100.00,North,0,11.0,16.0,43,0.00,,,-99.99,,2013-07-10 16:22:00,
2013-07-10 11:33:00,76.0,51.0,-100.00,North,5,12.0,19.0,40,0.00,,,-99.99,,2013-07-10 16:33:00,
2013-07-10 11:44:00,76.0,50.0,-100.00,North,5,12.0,23.0,40,0.00,,,-99.99,,2013-07-10 16:44:00,
2013-07-10 12:02:00,76.0,50.0,-100.00,NNE,20,13.0,17.0,39,0.00,,,-99.99,,2013-07-10 17:02:00,
2013-07-10 12:11:00,78.0,51.0,-100.00,NNW,345,9.0,17.0,39,0.00,,,-99.99,,2013-07-10 17:11:00,
2013-07-10 12:23:00,77.0,51.0,-100.00,North,5,10.0,18.0,39,0.00,,,-99.99,,2013-07-10 17:23:00,
2013-07-10 12:32:00,78.0,51.0,-100.00,NNE,15,12.0,17.0,39,0.00,,,-99.99,,2013-07-10 17:32:00,
2013-07-10 12:43:00,77.0,51.0,-100.00,NNE,20,10.0,15.0,39,0.00,,,-99.99,,2013-07-10 17:43:00,
2013-07-10 12:52:00,77.0,51.0,-100.00,NNE,20,10.0,15.0,39,0.00,,,-99.99,,2013-07-10 17:52:00,
2013-07-10 13:02:00,79.0,51.0,-100.00,North,10,7.0,11.0,37,0.00,,,-99.99,,2013-07-10 18:02:00,
2013-07-10 13:11:00,79.0,51.0,-100.00,NNW,345,11.0,14.0,37,0.00,,,-99.99,,2013-07-10 18:11:00,
2013-07-10 13:21:00,79.0,51.0,-100.00,North,5,5.0,12.0,37,0.00,,,-99.99,,2013-07-10 18:21:00,
2013-07-10 13:32:00,80.0,51.0,-100.00,NNW,335,6.0,14.0,36,0.00,,,-99.99,,2013-07-10 18:32:00,
2013-07-10 13:44:00,80.0,51.0,-100.00,North,10,4.0,12.0,36,0.00,,,-99.99,,2013-07-10 18:44:00,
2013-07-10 13:53:00,80.0,51.0,-100.00,NNW,335,9.0,14.0,36,0.00,,,-99.99,,2013-07-10 18:53:00,
2013-07-10 14:01:00,81.0,51.0,-100.00,NE,55,6.0,11.0,35,0.00,,,-99.99,,2013-07-10 19:01:00,
2013-07-10 14:11:00,81.0,51.0,-100.00,NE,50,7.0,12.0,35,0.00,,,-99.99,,2013-07-10 19:11:00,
2013-07-10 14:21:00,81.0,51.0,-100.00,North,350,6.0,10.0,34,0.00,,,-99.99,,2013-07-10 19:21:00,
2013-07-10 14:32:00,81.0,51.0,-100.00,NW,325,3.0,14.0,34,0.00,,,-99.99,,2013-07-10 19:32:00,
2013-07-10 14:42:00,83.0,51.0,-100.00,NW,305,4.0,7.0,33,0.00,,,-99.99,,2013-07-10 19:42:00,
2013-07-10 15:01:00,82.0,50.0,-100.00,NW,325,6.0,11.0,32,0.00,,,-99.99,,2013-07-10 20:01:00,
2013-07-10 15:11:00,82.0,49.0,-100.00,North,355,7.0,12.0,32,0.00,,,-99.99,,2013-07-10 20:11:00,
2013-07-10 15:22:00,82.0,49.0,-100.00,NNE,15,4.0,12.0,31,0.00,,,-99.99,,2013-07-10 20:22:00,
2013-07-10 15:32:00,83.0,49.0,-100.00,NNW,330,5.0,10.0,30,0.00,,,-99.99,,2013-07-10 20:32:00,
2013-07-10 15:43:00,82.0,49.0,-100.00,North,10,6.0,10.0,31,0.00,,,-99.99,,2013-07-10 20:43:00,
2013-07-10 15:52:00,82.0,49.0,-100.00,North,10,6.0,10.0,31,0.00,,,-99.99,,2013-07-10 20:52:00,
2013-07-10 16:01:00,83.0,49.0,-100.00,NW,310,4.0,11.0,30,0.00,,,-99.99,,2013-07-10 21:01:00,
2013-07-10 16:11:00,83.0,49.0,-100.00,NNW,335,7.0,12.0,30,0.00,,,-99.99,,2013-07-10 21:11:00,
2013-07-10 16:22:00,83.0,49.0,-100.00,North,350,7.0,12.0,30,0.00,,,-99.99,,2013-07-10 21:22:00,
2013-07-10 16:32:00,82.0,48.0,-100.00,North,10,6.0,10.0,30,0.00,,,-99.99,,2013-07-10 21:32:00,
2013-07-10 16:41:00,83.0,48.0,-100.00,North,5,7.0,11.0,30,0.00,,,-99.99,,2013-07-10 21:41:00,
2013-07-10 16:52:00,83.0,48.0,-100.00,NNE,15,4.0,11.0,30,0.00,,,-99.99,,2013-07-10 21:52:00,
2013-07-10 17:01:00,85.0,49.0,-100.00,WNW,300,5.0,9.0,29,0.00,,,-99.99,,2013-07-10 22:01:00,
2013-07-10 17:11:00,84.0,48.0,-100.00,NNW,340,6.0,9.0,28,0.00,,,-99.99,,2013-07-10 22:11:00,
2013-07-10 17:21:00,83.0,47.0,-100.00,West,275,5.0,12.0,28,0.00,,,-99.99,,2013-07-10 22:21:00,
2013-07-10 17:33:00,84.0,48.0,-100.00,North,10,5.0,8.0,28,0.00,,,-99.99,,2013-07-10 22:33:00,
2013-07-10 17:42:00,83.0,48.0,-100.00,North,350,4.0,8.0,29,0.00,,,-99.99,,2013-07-10 22:42:00,
2013-07-10 17:53:00,83.0,48.0,-100.00,NNW,330,4.0,7.0,29,0.00,,,-99.99,,2013-07-10 22:53:00,
2013-07-10 18:01:00,83.0,48.0,-100.00,NNW,330,7.0,12.0,30,0.00,,,-99.99,,2013-07-10 23:01:00,
2013-07-10 18:11:00,83.0,48.0,-100.00,North,355,5.0,11.0,30,0.00,,,-99.99,,2013-07-10 23:11:00,
2013-07-10 18:22:00,83.0,49.0,-100.00,NNW,335,3.0,9.0,30,0.00,,,-99.99,,2013-07-10 23:22:00,
2013-07-10 18:32:00,83.0,48.0,-100.00,NNW,330,4.0,8.0,29,0.00,,,-99.99,,2013-07-10 23:32:00,
2013-07-10 18:43:00,83.0,48.0,-100.00,NNW,330,4.0,8.0,29,0.00,,,-99.99,,2013-07-10 23:43:00,
2013-07-10 18:52:00,83.0,48.0,-100.00,North,350,4.0,7.0,30,0.00,,,-99.99,,2013-07-10 23:52:00,
2013-07-10 19:01:00,82.0,48.0,-100.00,North,0,6.0,8.0,30,0.00,,,-99.99,,2013-07-11 00:01:00,
2013-07-10 19:11:00,82.0,49.0,-100.00,North,0,4.0,6.0,31,0.00,,,-99.99,,2013-07-11 00:11:00,
2013-07-10 19:22:00,82.0,48.0,-100.00,North,350,3.0,9.0,31,0.00,,,-99.99,,2013-07-11 00:22:00,
2013-07-10 19:32:00,82.0,48.0,-100.00,NW,320,3.0,6.0,30,0.00,,,-99.99,,2013-07-11 00:32:00,
2013-07-10 19:42:00,81.0,48.0,-100.00,North,5,4.0,6.0,31,0.00,,,-99.99,,2013-07-11 00:42:00,
2013-07-10 19:52:00,81.0,48.0,-100.00,North,0,3.0,6.0,31,0.00,,,-99.99,,2013-07-11 00:52:00,
2013-07-10 20:01:00,81.0,48.0,-100.00,North,0,4.0,6.0,32,0.00,,,-99.99,,2013-07-11 01:01:00,
2013-07-10 20:11:00,80.0,48.0,-100.00,North,350,4.0,7.0,32,0.00,,,-99.99,,2013-07-11 01:11:00,
2013-07-10 20:22:00,79.0,48.0,-100.00,North,0,5.0,6.0,32,0.00,,,-99.99,,2013-07-11 01:22:00,
2013-07-10 20:52:00,78.0,49.0,-100.00,North,350,2.0,4.0,35,0.00,,,-99.99,,2013-07-11 01:52:00,
2013-07-10 21:11:00,76.0,49.0,-100.00,North,0,4.0,4.0,38,0.00,,,-99.99,,2013-07-11 02:11:00,
2013-07-10 21:22:00,76.0,49.0,-100.00,North,350,3.0,5.0,38,0.00,,,-99.99,,2013-07-11 02:22:00,
2013-07-10 21:43:00,75.0,49.0,-100.00,North,0,3.0,5.0,39,0.00,,,-99.99,,2013-07-11 02:43:00,
2013-07-10 21:53:00,75.0,49.0,-100.00,North,0,3.0,4.0,40,0.00,,,-99.99,,2013-07-11 02:53:00,
2013-07-10 22:02:00,74.0,49.0,-100.00,North,10,2.0,4.0,42,0.00,,,-99.99,,2013-07-11 03:02:00,
2013-07-10 22:11:00,72.0,51.0,-100.00,North,5,4.0,4.0,45,0.00,,,-99.99,,2013-07-11 03:11:00,
2013-07-10 22:21:00,73.0,51.0,-100.00,North,5,5.0,6.0,45,0.00,,,-99.99,,2013-07-11 03:21:00,
2013-07-10 22:33:00,73.0,51.0,-100.00,North,5,4.0,6.0,46,0.00,,,-99.99,,2013-07-11 03:33:00,
2013-07-10 22:42:00,73.0,51.0,-100.00,North,5,5.0,6.0,46,0.00,,,-99.99,,2013-07-11 03:42:00,
2013-07-10 23:12:00,72.0,52.0,-100.00,North,0,3.0,5.0,49,0.00,,,-99.99,,2013-07-11 04:12:00,
2013-07-10 23:22:00,71.0,52.0,-100.00,North,0,4.0,4.0,50,0.00,,,-99.99,,2013-07-11 04:22:00,
2013-07-10 23:42:00,70.0,52.0,-100.00,North,0,2.0,4.0,52,0.00,,,-99.99,,2013-07-11 04:42:00,
2013-07-10 23:53:00,70.0,53.0,-100.00,North,0,2.0,4.0,54,0.00,,,-99.99,,2013-07-11 04:53:00,